sensor_id;sensor_type;location;lat;lon;timestamp;temperature;humidity
66257;DHT22;53049;43.446;3.698;2023-04-07T00:00:20;9.20;1.00
66257;DHT22;53049;43.446;3.698;2023-04-07T00:02:46;9.10;1.00
66257;DHT22;53049;43.446;3.698;2023-04-07T00:05:13;9.00;1.00
66257;DHT22;53049;43.446;3.698;2023-04-07T00:07:39;9.00;1.00
66257;DHT22;53049;43.446;3.698;2023-04-07T00:10:06;8.90;1.00
66257;DHT22;53049;43.446;3.698;2023-04-07T00:12:32;8.80;1.00
66257;DHT22;53049;43.446;3.698;2023-04-07T00:14:58;8.80;1.00
66257;DHT22;53049;43.446;3.698;2023-04-07T00:17:24;8.70;1.00
66257;DHT22;53049;43.446;3.698;2023-04-07T00:19:49;8.70;1.00
66257;DHT22;53049;43.446;3.698;2023-04-07T00:22:15;8.60;1.00
66257;DHT22;53049;43.446;3.698;2023-04-07T00:24:42;8.60;1.00
66257;DHT22;53049;43.446;3.698;2023-04-07T00:27:08;8.50;1.00
66257;DHT22;53049;43.446;3.698;2023-04-07T00:29:33;8.50;1.00
66257;DHT22;53049;43.446;3.698;2023-04-07T00:31:59;8.40;1.00
66257;DHT22;53049;43.446;3.698;2023-04-07T00:34:25;8.40;1.00
66257;DHT22;53049;43.446;3.698;2023-04-07T00:36:50;8.40;1.00
66257;DHT22;53049;43.446;3.698;2023-04-07T00:39:20;8.50;1.00
66257;DHT22;53049;43.446;3.698;2023-04-07T00:41:46;8.50;1.00
66257;DHT22;53049;43.446;3.698;2023-04-07T00:44:12;8.40;1.00
66257;DHT22;53049;43.446;3.698;2023-04-07T00:46:38;8.40;1.00
66257;DHT22;53049;43.446;3.698;2023-04-07T00:49:05;8.30;1.00
66257;DHT22;53049;43.446;3.698;2023-04-07T00:51:31;8.20;1.00
66257;DHT22;53049;43.446;3.698;2023-04-07T00:53:57;8.20;1.00
66257;DHT22;53049;43.446;3.698;2023-04-07T00:56:23;8.20;1.00
66257;DHT22;53049;43.446;3.698;2023-04-07T00:58:49;8.20;1.00
66257;DHT22;53049;43.446;3.698;2023-04-07T01:01:20;8.20;1.00
66257;DHT22;53049;43.446;3.698;2023-04-07T01:06:24;8.10;1.00
66257;DHT22;53049;43.446;3.698;2023-04-07T01:09:10;8.20;1.00
66257;DHT22;53049;43.446;3.698;2023-04-07T01:12:06;8.20;1.00
66257;DHT22;53049;43.446;3.698;2023-04-07T01:14:34;8.20;1.00
66257;DHT22;53049;43.446;3.698;2023-04-07T01:17:06;8.20;1.00
66257;DHT22;53049;43.446;3.698;2023-04-07T01:19:46;8.30;1.00
66257;DHT22;53049;43.446;3.698;2023-04-07T01:22:16;8.30;1.00
66257;DHT22;53049;43.446;3.698;2023-04-07T01:30:10;8.30;1.00
66257;DHT22;53049;43.446;3.698;2023-04-07T01:32:39;8.30;1.00
66257;DHT22;53049;43.446;3.698;2023-04-07T01:35:09;8.30;1.00
66257;DHT22;53049;43.446;3.698;2023-04-07T01:37:36;8.30;1.00
66257;DHT22;53049;43.446;3.698;2023-04-07T01:40:04;8.30;1.00
66257;DHT22;53049;43.446;3.698;2023-04-07T01:42:32;8.30;1.00
66257;DHT22;53049;43.446;3.698;2023-04-07T01:45:00;8.40;1.00
66257;DHT22;53049;43.446;3.698;2023-04-07T01:47:27;8.40;1.00
66257;DHT22;53049;43.446;3.698;2023-04-07T01:49:57;8.50;1.00
66257;DHT22;53049;43.446;3.698;2023-04-07T01:52:25;8.50;1.00
66257;DHT22;53049;43.446;3.698;2023-04-07T01:54:52;8.50;1.00
66257;DHT22;53049;43.446;3.698;2023-04-07T01:57:18;8.50;1.00
66257;DHT22;53049;43.446;3.698;2023-04-07T01:59:43;8.40;1.00
66257;DHT22;53049;43.446;3.698;2023-04-07T02:02:09;8.40;1.00
66257;DHT22;53049;43.446;3.698;2023-04-07T02:04:42;8.30;1.00
66257;DHT22;53049;43.446;3.698;2023-04-07T02:07:19;8.30;1.00
66257;DHT22;53049;43.446;3.698;2023-04-07T02:09:47;8.30;1.00
66257;DHT22;53049;43.446;3.698;2023-04-07T02:12:15;8.20;1.00
66257;DHT22;53049;43.446;3.698;2023-04-07T02:14:42;8.20;1.00
66257;DHT22;53049;43.446;3.698;2023-04-07T02:17:08;8.20;1.00
66257;DHT22;53049;43.446;3.698;2023-04-07T02:19:35;8.20;1.00
66257;DHT22;53049;43.446;3.698;2023-04-07T02:22:03;8.10;1.00
66257;DHT22;53049;43.446;3.698;2023-04-07T02:24:29;8.30;1.00
66257;DHT22;53049;43.446;3.698;2023-04-07T02:26:54;8.40;1.00
66257;DHT22;53049;43.446;3.698;2023-04-07T02:29:20;8.40;1.00
66257;DHT22;53049;43.446;3.698;2023-04-07T02:31:46;8.50;1.00
66257;DHT22;53049;43.446;3.698;2023-04-07T02:34:12;8.40;1.00
66257;DHT22;53049;43.446;3.698;2023-04-07T02:36:37;8.40;1.00
66257;DHT22;53049;43.446;3.698;2023-04-07T02:39:03;8.40;1.00
66257;DHT22;53049;43.446;3.698;2023-04-07T02:41:29;8.40;1.00
66257;DHT22;53049;43.446;3.698;2023-04-07T02:43:54;8.30;1.00
66257;DHT22;53049;43.446;3.698;2023-04-07T02:46:20;8.20;1.00
66257;DHT22;53049;43.446;3.698;2023-04-07T02:48:46;8.10;1.00
66257;DHT22;53049;43.446;3.698;2023-04-07T02:51:11;8.10;1.00
66257;DHT22;53049;43.446;3.698;2023-04-07T02:53:37;8.00;1.00
66257;DHT22;53049;43.446;3.698;2023-04-07T02:56:03;8.00;1.00
66257;DHT22;53049;43.446;3.698;2023-04-07T02:58:28;8.00;1.00
66257;DHT22;53049;43.446;3.698;2023-04-07T03:00:54;8.10;1.00
66257;DHT22;53049;43.446;3.698;2023-04-07T03:03:20;8.10;1.00
66257;DHT22;53049;43.446;3.698;2023-04-07T03:05:45;8.00;1.00
66257;DHT22;53049;43.446;3.698;2023-04-07T03:08:11;8.00;1.00
66257;DHT22;53049;43.446;3.698;2023-04-07T03:10:37;8.10;1.00
66257;DHT22;53049;43.446;3.698;2023-04-07T03:13:02;8.20;1.00
66257;DHT22;53049;43.446;3.698;2023-04-07T03:15:28;8.10;1.00
66257;DHT22;53049;43.446;3.698;2023-04-07T03:17:53;8.00;1.00
66257;DHT22;53049;43.446;3.698;2023-04-07T03:20:19;8.00;1.00
66257;DHT22;53049;43.446;3.698;2023-04-07T03:22:45;8.00;1.00
66257;DHT22;53049;43.446;3.698;2023-04-07T03:25:11;8.00;1.00
66257;DHT22;53049;43.446;3.698;2023-04-07T03:27:37;8.00;1.00
66257;DHT22;53049;43.446;3.698;2023-04-07T03:30:03;8.00;1.00
66257;DHT22;53049;43.446;3.698;2023-04-07T03:32:29;8.00;1.00
66257;DHT22;53049;43.446;3.698;2023-04-07T03:34:54;8.10;1.00
66257;DHT22;53049;43.446;3.698;2023-04-07T03:37:21;8.00;1.00
66257;DHT22;53049;43.446;3.698;2023-04-07T03:39:47;8.00;1.00
66257;DHT22;53049;43.446;3.698;2023-04-07T03:42:12;8.00;1.00
66257;DHT22;53049;43.446;3.698;2023-04-07T03:44:38;8.00;1.00
66257;DHT22;53049;43.446;3.698;2023-04-07T03:47:04;8.00;1.00
66257;DHT22;53049;43.446;3.698;2023-04-07T03:49:29;8.10;1.00
66257;DHT22;53049;43.446;3.698;2023-04-07T03:51:56;8.00;1.00
66257;DHT22;53049;43.446;3.698;2023-04-07T03:54:22;8.00;1.00
66257;DHT22;53049;43.446;3.698;2023-04-07T03:56:47;8.00;1.00
66257;DHT22;53049;43.446;3.698;2023-04-07T03:59:13;8.00;1.00
66257;DHT22;53049;43.446;3.698;2023-04-07T04:01:39;8.00;1.00
66257;DHT22;53049;43.446;3.698;2023-04-07T04:04:05;8.00;1.00
66257;DHT22;53049;43.446;3.698;2023-04-07T04:06:30;8.00;1.00
66257;DHT22;53049;43.446;3.698;2023-04-07T04:08:56;7.90;1.00
66257;DHT22;53049;43.446;3.698;2023-04-07T04:11:22;7.90;1.00
66257;DHT22;53049;43.446;3.698;2023-04-07T04:13:48;7.80;1.00
66257;DHT22;53049;43.446;3.698;2023-04-07T04:16:13;7.80;1.00
66257;DHT22;53049;43.446;3.698;2023-04-07T04:18:39;7.80;1.00
66257;DHT22;53049;43.446;3.698;2023-04-07T04:21:08;7.70;1.00
66257;DHT22;53049;43.446;3.698;2023-04-07T04:23:33;7.70;1.00
66257;DHT22;53049;43.446;3.698;2023-04-07T04:25:59;7.70;1.00
66257;DHT22;53049;43.446;3.698;2023-04-07T04:28:28;7.60;1.00
66257;DHT22;53049;43.446;3.698;2023-04-07T04:30:54;7.60;1.00
66257;DHT22;53049;43.446;3.698;2023-04-07T04:33:20;7.40;1.00
66257;DHT22;53049;43.446;3.698;2023-04-07T04:35:45;7.30;1.00
66257;DHT22;53049;43.446;3.698;2023-04-07T04:38:11;7.30;1.00
66257;DHT22;53049;43.446;3.698;2023-04-07T04:40:37;7.20;1.00
66257;DHT22;53049;43.446;3.698;2023-04-07T04:43:02;7.30;1.00
66257;DHT22;53049;43.446;3.698;2023-04-07T04:45:32;7.20;1.00
66257;DHT22;53049;43.446;3.698;2023-04-07T04:47:57;7.20;1.00
66257;DHT22;53049;43.446;3.698;2023-04-07T04:50:23;7.30;1.00
66257;DHT22;53049;43.446;3.698;2023-04-07T04:52:49;7.40;1.00
66257;DHT22;53049;43.446;3.698;2023-04-07T04:55:14;7.30;1.00
66257;DHT22;53049;43.446;3.698;2023-04-07T04:57:40;7.20;1.00
66257;DHT22;53049;43.446;3.698;2023-04-07T05:00:07;7.10;1.00
66257;DHT22;53049;43.446;3.698;2023-04-07T05:02:33;7.00;1.00
66257;DHT22;53049;43.446;3.698;2023-04-07T05:04:58;7.00;1.00
66257;DHT22;53049;43.446;3.698;2023-04-07T05:07:24;7.00;1.00
66257;DHT22;53049;43.446;3.698;2023-04-07T05:09:50;7.00;1.00
66257;DHT22;53049;43.446;3.698;2023-04-07T05:12:16;7.10;1.00
66257;DHT22;53049;43.446;3.698;2023-04-07T05:14:41;7.00;1.00
66257;DHT22;53049;43.446;3.698;2023-04-07T05:17:07;7.00;1.00
66257;DHT22;53049;43.446;3.698;2023-04-07T05:19:33;7.00;1.00
66257;DHT22;53049;43.446;3.698;2023-04-07T05:21:58;7.00;1.00
66257;DHT22;53049;43.446;3.698;2023-04-07T05:24:27;7.00;1.00
66257;DHT22;53049;43.446;3.698;2023-04-07T05:26:52;7.00;1.00
66257;DHT22;53049;43.446;3.698;2023-04-07T05:29:18;7.00;1.00
66257;DHT22;53049;43.446;3.698;2023-04-07T05:31:44;7.00;1.00
66257;DHT22;53049;43.446;3.698;2023-04-07T05:34:10;7.00;1.00
66257;DHT22;53049;43.446;3.698;2023-04-07T05:36:35;7.00;1.00
66257;DHT22;53049;43.446;3.698;2023-04-07T05:39:01;7.10;1.00
66257;DHT22;53049;43.446;3.698;2023-04-07T05:41:27;7.10;1.00
66257;DHT22;53049;43.446;3.698;2023-04-07T05:43:52;7.20;1.00
66257;DHT22;53049;43.446;3.698;2023-04-07T05:46:18;7.20;1.00
66257;DHT22;53049;43.446;3.698;2023-04-07T05:48:43;7.20;1.00
66257;DHT22;53049;43.446;3.698;2023-04-07T05:51:09;7.30;1.00
66257;DHT22;53049;43.446;3.698;2023-04-07T05:53:35;7.30;1.00
66257;DHT22;53049;43.446;3.698;2023-04-07T05:56:01;7.30;1.00
66257;DHT22;53049;43.446;3.698;2023-04-07T05:58:26;7.40;1.00
66257;DHT22;53049;43.446;3.698;2023-04-07T06:00:52;7.40;1.00
66257;DHT22;53049;43.446;3.698;2023-04-07T06:03:18;7.40;1.00
66257;DHT22;53049;43.446;3.698;2023-04-07T06:05:46;7.40;1.00
66257;DHT22;53049;43.446;3.698;2023-04-07T06:08:12;7.50;1.00
66257;DHT22;53049;43.446;3.698;2023-04-07T06:10:38;7.60;1.00
66257;DHT22;53049;43.446;3.698;2023-04-07T06:13:06;7.60;1.00
66257;DHT22;53049;43.446;3.698;2023-04-07T06:15:31;7.70;1.00
66257;DHT22;53049;43.446;3.698;2023-04-07T06:17:57;7.70;1.00
66257;DHT22;53049;43.446;3.698;2023-04-07T06:20:23;7.80;1.00
66257;DHT22;53049;43.446;3.698;2023-04-07T06:22:48;7.90;1.00
66257;DHT22;53049;43.446;3.698;2023-04-07T06:25:14;7.90;1.00
66257;DHT22;53049;43.446;3.698;2023-04-07T06:27:40;8.00;1.00
66257;DHT22;53049;43.446;3.698;2023-04-07T06:30:06;8.10;1.00
66257;DHT22;53049;43.446;3.698;2023-04-07T06:32:32;8.20;1.00
66257;DHT22;53049;43.446;3.698;2023-04-07T06:34:58;8.30;1.00
66257;DHT22;53049;43.446;3.698;2023-04-07T06:37:24;8.40;1.00
66257;DHT22;53049;43.446;3.698;2023-04-07T06:39:50;8.50;1.00
66257;DHT22;53049;43.446;3.698;2023-04-07T06:42:16;8.70;1.00
66257;DHT22;53049;43.446;3.698;2023-04-07T06:44:41;9.00;1.00
66257;DHT22;53049;43.446;3.698;2023-04-07T06:47:08;9.30;1.00
66257;DHT22;53049;43.446;3.698;2023-04-07T06:49:34;9.60;1.00
66257;DHT22;53049;43.446;3.698;2023-04-07T06:51:59;9.90;1.00
66257;DHT22;53049;43.446;3.698;2023-04-07T06:54:25;10.20;1.00
66257;DHT22;53049;43.446;3.698;2023-04-07T06:56:51;10.40;1.00
66257;DHT22;53049;43.446;3.698;2023-04-07T06:59:16;10.80;1.00
66257;DHT22;53049;43.446;3.698;2023-04-07T07:01:42;11.00;1.00
66257;DHT22;53049;43.446;3.698;2023-04-07T07:04:08;11.10;1.00
66257;DHT22;53049;43.446;3.698;2023-04-07T07:06:34;11.30;1.00
66257;DHT22;53049;43.446;3.698;2023-04-07T07:09:00;11.50;1.00
66257;DHT22;53049;43.446;3.698;2023-04-07T07:11:27;11.70;1.00
66257;DHT22;53049;43.446;3.698;2023-04-07T07:13:54;11.80;1.00
66257;DHT22;53049;43.446;3.698;2023-04-07T07:16:19;12.00;1.00
66257;DHT22;53049;43.446;3.698;2023-04-07T07:18:48;12.30;1.00
66257;DHT22;53049;43.446;3.698;2023-04-07T07:21:14;12.40;1.00
66257;DHT22;53049;43.446;3.698;2023-04-07T07:23:40;12.60;1.00
66257;DHT22;53049;43.446;3.698;2023-04-07T07:26:06;12.60;1.00
66257;DHT22;53049;43.446;3.698;2023-04-07T07:28:31;12.70;1.00
66257;DHT22;53049;43.446;3.698;2023-04-07T07:30:57;12.90;1.00
66257;DHT22;53049;43.446;3.698;2023-04-07T07:33:23;12.90;1.00
66257;DHT22;53049;43.446;3.698;2023-04-07T07:35:48;12.90;1.00
66257;DHT22;53049;43.446;3.698;2023-04-07T07:38:14;13.00;1.00
66257;DHT22;53049;43.446;3.698;2023-04-07T07:40:40;13.10;1.00
66257;DHT22;53049;43.446;3.698;2023-04-07T07:43:05;13.10;1.00
66257;DHT22;53049;43.446;3.698;2023-04-07T07:45:31;13.30;1.00
66257;DHT22;53049;43.446;3.698;2023-04-07T07:47:57;13.40;1.00
66257;DHT22;53049;43.446;3.698;2023-04-07T07:50:22;13.40;1.00
66257;DHT22;53049;43.446;3.698;2023-04-07T07:52:48;13.50;1.00
66257;DHT22;53049;43.446;3.698;2023-04-07T07:55:14;13.50;1.00
66257;DHT22;53049;43.446;3.698;2023-04-07T07:57:39;13.60;1.00
66257;DHT22;53049;43.446;3.698;2023-04-07T08:00:06;13.60;1.00
66257;DHT22;53049;43.446;3.698;2023-04-07T08:02:31;13.50;1.00
66257;DHT22;53049;43.446;3.698;2023-04-07T08:04:58;13.40;1.00
66257;DHT22;53049;43.446;3.698;2023-04-07T08:07:25;13.40;1.00
66257;DHT22;53049;43.446;3.698;2023-04-07T08:09:52;13.40;1.00
66257;DHT22;53049;43.446;3.698;2023-04-07T08:12:17;13.30;1.00
66257;DHT22;53049;43.446;3.698;2023-04-07T08:14:43;13.30;1.00
66257;DHT22;53049;43.446;3.698;2023-04-07T08:17:09;13.50;1.00
66257;DHT22;53049;43.446;3.698;2023-04-07T08:19:35;13.50;1.00
66257;DHT22;53049;43.446;3.698;2023-04-07T08:22:00;13.70;1.00
66257;DHT22;53049;43.446;3.698;2023-04-07T08:24:28;13.90;1.00
66257;DHT22;53049;43.446;3.698;2023-04-07T08:26:53;14.20;1.00
66257;DHT22;53049;43.446;3.698;2023-04-07T08:29:19;14.50;1.00
66257;DHT22;53049;43.446;3.698;2023-04-07T08:31:45;15.20;1.00
66257;DHT22;53049;43.446;3.698;2023-04-07T08:34:10;17.30;1.00
66257;DHT22;53049;43.446;3.698;2023-04-07T08:36:38;19.90;1.00
66257;DHT22;53049;43.446;3.698;2023-04-07T08:39:03;21.20;1.00
66257;DHT22;53049;43.446;3.698;2023-04-07T08:41:36;19.90;1.00
66257;DHT22;53049;43.446;3.698;2023-04-07T08:44:02;19.00;1.00
66257;DHT22;53049;43.446;3.698;2023-04-07T08:46:29;18.30;1.00
66257;DHT22;53049;43.446;3.698;2023-04-07T08:48:55;17.80;1.00
66257;DHT22;53049;43.446;3.698;2023-04-07T08:51:31;17.70;1.00
66257;DHT22;53049;43.446;3.698;2023-04-07T08:54:08;18.00;1.00
66257;DHT22;53049;43.446;3.698;2023-04-07T08:56:38;18.70;1.00
66257;DHT22;53049;43.446;3.698;2023-04-07T08:59:12;18.80;1.00
66257;DHT22;53049;43.446;3.698;2023-04-07T09:01:39;19.10;1.00
66257;DHT22;53049;43.446;3.698;2023-04-07T09:04:05;19.10;1.00
66257;DHT22;53049;43.446;3.698;2023-04-07T09:06:33;19.20;1.00
66257;DHT22;53049;43.446;3.698;2023-04-07T09:09:03;19.20;1.00
66257;DHT22;53049;43.446;3.698;2023-04-07T09:11:34;19.20;1.00
66257;DHT22;53049;43.446;3.698;2023-04-07T09:14:00;19.60;1.00
66257;DHT22;53049;43.446;3.698;2023-04-07T09:16:28;19.90;1.00
66257;DHT22;53049;43.446;3.698;2023-04-07T09:18:53;20.20;1.00
66257;DHT22;53049;43.446;3.698;2023-04-07T09:21:19;20.70;1.00
66257;DHT22;53049;43.446;3.698;2023-04-07T09:23:46;20.80;1.00
66257;DHT22;53049;43.446;3.698;2023-04-07T09:26:23;20.70;1.00
66257;DHT22;53049;43.446;3.698;2023-04-07T09:28:59;21.40;1.00
66257;DHT22;53049;43.446;3.698;2023-04-07T09:31:50;21.90;1.00
66257;DHT22;53049;43.446;3.698;2023-04-07T09:34:28;22.70;1.00
66257;DHT22;53049;43.446;3.698;2023-04-07T09:36:55;21.50;1.00
66257;DHT22;53049;43.446;3.698;2023-04-07T09:39:22;21.20;1.00
66257;DHT22;53049;43.446;3.698;2023-04-07T09:41:49;20.50;1.00
66257;DHT22;53049;43.446;3.698;2023-04-07T09:44:15;20.30;1.00
66257;DHT22;53049;43.446;3.698;2023-04-07T09:46:57;20.20;1.00
66257;DHT22;53049;43.446;3.698;2023-04-07T09:49:24;20.00;1.00
66257;DHT22;53049;43.446;3.698;2023-04-07T09:51:53;20.20;1.00
66257;DHT22;53049;43.446;3.698;2023-04-07T09:54:36;20.60;1.00
66257;DHT22;53049;43.446;3.698;2023-04-07T09:57:06;20.70;1.00
66257;DHT22;53049;43.446;3.698;2023-04-07T09:59:33;21.00;1.00
66257;DHT22;53049;43.446;3.698;2023-04-07T10:02:00;21.00;1.00
66257;DHT22;53049;43.446;3.698;2023-04-07T10:04:26;20.90;1.00
66257;DHT22;53049;43.446;3.698;2023-04-07T10:06:53;20.60;1.00
66257;DHT22;53049;43.446;3.698;2023-04-07T10:09:24;20.70;1.00
66257;DHT22;53049;43.446;3.698;2023-04-07T10:11:51;20.80;1.00
66257;DHT22;53049;43.446;3.698;2023-04-07T10:14:18;20.90;1.00
66257;DHT22;53049;43.446;3.698;2023-04-07T10:16:46;21.00;1.00
66257;DHT22;53049;43.446;3.698;2023-04-07T10:19:13;20.90;1.00
66257;DHT22;53049;43.446;3.698;2023-04-07T10:21:40;21.00;1.00
66257;DHT22;53049;43.446;3.698;2023-04-07T10:24:16;20.80;1.00
66257;DHT22;53049;43.446;3.698;2023-04-07T10:26:50;20.70;1.00
66257;DHT22;53049;43.446;3.698;2023-04-07T10:29:17;20.80;1.00
66257;DHT22;53049;43.446;3.698;2023-04-07T10:31:44;20.90;1.00
66257;DHT22;53049;43.446;3.698;2023-04-07T10:34:11;21.00;1.00
66257;DHT22;53049;43.446;3.698;2023-04-07T10:37:10;21.00;1.00
66257;DHT22;53049;43.446;3.698;2023-04-07T10:39:38;20.70;1.00
66257;DHT22;53049;43.446;3.698;2023-04-07T10:42:03;20.70;1.00
66257;DHT22;53049;43.446;3.698;2023-04-07T10:47:07;21.00;1.00
66257;DHT22;53049;43.446;3.698;2023-04-07T10:49:33;21.10;1.00
66257;DHT22;53049;43.446;3.698;2023-04-07T10:54:37;21.20;1.00
66257;DHT22;53049;43.446;3.698;2023-04-07T10:57:08;21.40;1.00
66257;DHT22;53049;43.446;3.698;2023-04-07T11:02:36;21.50;1.00
66257;DHT22;53049;43.446;3.698;2023-04-07T11:05:02;21.10;1.00
66257;DHT22;53049;43.446;3.698;2023-04-07T11:07:48;20.90;1.00
66257;DHT22;53049;43.446;3.698;2023-04-07T11:10:15;21.10;1.00
66257;DHT22;53049;43.446;3.698;2023-04-07T11:12:42;21.40;1.00
66257;DHT22;53049;43.446;3.698;2023-04-07T11:15:20;21.10;1.00
66257;DHT22;53049;43.446;3.698;2023-04-07T11:18:05;20.90;1.00
66257;DHT22;53049;43.446;3.698;2023-04-07T11:23:09;21.00;1.00
66257;DHT22;53049;43.446;3.698;2023-04-07T11:25:36;20.80;1.00
66257;DHT22;53049;43.446;3.698;2023-04-07T11:28:05;20.70;1.00
66257;DHT22;53049;43.446;3.698;2023-04-07T11:30:34;20.60;1.00
66257;DHT22;53049;43.446;3.698;2023-04-07T11:33:00;20.30;1.00
66257;DHT22;53049;43.446;3.698;2023-04-07T11:35:26;20.40;1.00
66257;DHT22;53049;43.446;3.698;2023-04-07T11:37:58;20.50;1.00
66257;DHT22;53049;43.446;3.698;2023-04-07T11:40:35;20.10;1.00
66257;DHT22;53049;43.446;3.698;2023-04-07T11:43:02;20.40;1.00
66257;DHT22;53049;43.446;3.698;2023-04-07T11:45:39;20.60;1.00
66257;DHT22;53049;43.446;3.698;2023-04-07T11:48:24;21.10;1.00
66257;DHT22;53049;43.446;3.698;2023-04-07T11:50:49;21.20;1.00
66257;DHT22;53049;43.446;3.698;2023-04-07T11:53:33;21.30;1.00
66257;DHT22;53049;43.446;3.698;2023-04-07T11:56:01;21.50;1.00
66257;DHT22;53049;43.446;3.698;2023-04-07T11:58:27;21.10;1.00
66257;DHT22;53049;43.446;3.698;2023-04-07T12:00:55;20.80;1.00
66257;DHT22;53049;43.446;3.698;2023-04-07T12:03:21;20.80;1.00
66257;DHT22;53049;43.446;3.698;2023-04-07T12:05:47;20.90;1.00
66257;DHT22;53049;43.446;3.698;2023-04-07T12:08:13;21.20;1.00
66257;DHT22;53049;43.446;3.698;2023-04-07T12:10:43;21.30;1.00
66257;DHT22;53049;43.446;3.698;2023-04-07T12:13:12;20.60;1.00
66257;DHT22;53049;43.446;3.698;2023-04-07T12:15:38;20.50;1.00
66257;DHT22;53049;43.446;3.698;2023-04-07T12:18:04;20.60;1.00
66257;DHT22;53049;43.446;3.698;2023-04-07T12:20:30;20.80;1.00
66257;DHT22;53049;43.446;3.698;2023-04-07T12:22:57;20.80;1.00
66257;DHT22;53049;43.446;3.698;2023-04-07T12:25:23;20.90;1.00
66257;DHT22;53049;43.446;3.698;2023-04-07T12:27:48;20.90;1.00
66257;DHT22;53049;43.446;3.698;2023-04-07T12:30:14;20.90;1.00
66257;DHT22;53049;43.446;3.698;2023-04-07T12:32:40;20.90;1.00
66257;DHT22;53049;43.446;3.698;2023-04-07T12:35:06;20.80;1.00
66257;DHT22;53049;43.446;3.698;2023-04-07T12:37:32;20.90;1.00
66257;DHT22;53049;43.446;3.698;2023-04-07T12:39:58;20.70;1.00
66257;DHT22;53049;43.446;3.698;2023-04-07T12:42:24;20.70;1.00
66257;DHT22;53049;43.446;3.698;2023-04-07T12:44:49;20.80;1.00
66257;DHT22;53049;43.446;3.698;2023-04-07T12:47:16;20.80;1.00
66257;DHT22;53049;43.446;3.698;2023-04-07T12:49:42;20.60;1.00
66257;DHT22;53049;43.446;3.698;2023-04-07T12:52:07;20.70;1.00
66257;DHT22;53049;43.446;3.698;2023-04-07T12:54:33;20.70;1.00
66257;DHT22;53049;43.446;3.698;2023-04-07T12:56:59;20.70;1.00
66257;DHT22;53049;43.446;3.698;2023-04-07T12:59:25;20.60;1.00
66257;DHT22;53049;43.446;3.698;2023-04-07T13:01:52;20.60;1.00
66257;DHT22;53049;43.446;3.698;2023-04-07T13:04:17;20.50;1.00
66257;DHT22;53049;43.446;3.698;2023-04-07T13:06:43;20.50;1.00
66257;DHT22;53049;43.446;3.698;2023-04-07T13:09:09;20.40;1.00
66257;DHT22;53049;43.446;3.698;2023-04-07T13:11:35;20.30;1.00
66257;DHT22;53049;43.446;3.698;2023-04-07T13:14:01;20.40;1.00
66257;DHT22;53049;43.446;3.698;2023-04-07T13:16:26;20.50;1.00
66257;DHT22;53049;43.446;3.698;2023-04-07T13:18:52;20.50;1.00
66257;DHT22;53049;43.446;3.698;2023-04-07T13:21:18;20.50;1.00
66257;DHT22;53049;43.446;3.698;2023-04-07T13:23:44;20.50;1.00
66257;DHT22;53049;43.446;3.698;2023-04-07T13:26:10;20.50;1.00
66257;DHT22;53049;43.446;3.698;2023-04-07T13:28:36;20.60;1.00
66257;DHT22;53049;43.446;3.698;2023-04-07T13:31:02;20.70;1.00
66257;DHT22;53049;43.446;3.698;2023-04-07T13:33:28;20.70;1.00
66257;DHT22;53049;43.446;3.698;2023-04-07T13:35:53;20.60;1.00
66257;DHT22;53049;43.446;3.698;2023-04-07T13:38:19;20.70;1.00
66257;DHT22;53049;43.446;3.698;2023-04-07T13:40:44;20.70;1.00
66257;DHT22;53049;43.446;3.698;2023-04-07T13:43:13;20.70;1.00
66257;DHT22;53049;43.446;3.698;2023-04-07T13:45:39;20.70;1.00
66257;DHT22;53049;43.446;3.698;2023-04-07T13:48:05;20.70;1.00
66257;DHT22;53049;43.446;3.698;2023-04-07T13:50:32;20.80;1.00
66257;DHT22;53049;43.446;3.698;2023-04-07T13:53:00;20.70;1.00
66257;DHT22;53049;43.446;3.698;2023-04-07T13:55:26;20.60;1.00
66257;DHT22;53049;43.446;3.698;2023-04-07T13:57:51;20.50;1.00
66257;DHT22;53049;43.446;3.698;2023-04-07T14:00:17;20.60;1.00
66257;DHT22;53049;43.446;3.698;2023-04-07T14:02:43;20.70;1.00
66257;DHT22;53049;43.446;3.698;2023-04-07T14:05:10;20.70;1.00
66257;DHT22;53049;43.446;3.698;2023-04-07T14:07:35;20.70;1.00
66257;DHT22;53049;43.446;3.698;2023-04-07T14:10:01;20.70;1.00
66257;DHT22;53049;43.446;3.698;2023-04-07T14:12:27;20.80;1.00
66257;DHT22;53049;43.446;3.698;2023-04-07T14:14:53;20.70;1.00
66257;DHT22;53049;43.446;3.698;2023-04-07T14:17:19;20.70;1.00
66257;DHT22;53049;43.446;3.698;2023-04-07T14:19:45;20.70;1.00
66257;DHT22;53049;43.446;3.698;2023-04-07T14:22:13;20.80;1.00
66257;DHT22;53049;43.446;3.698;2023-04-07T14:24:39;20.80;1.00
66257;DHT22;53049;43.446;3.698;2023-04-07T14:27:04;20.70;1.00
66257;DHT22;53049;43.446;3.698;2023-04-07T14:29:31;20.60;1.00
66257;DHT22;53049;43.446;3.698;2023-04-07T14:31:56;20.50;1.00
66257;DHT22;53049;43.446;3.698;2023-04-07T14:34:22;20.50;1.00
66257;DHT22;53049;43.446;3.698;2023-04-07T14:36:56;20.50;1.00
66257;DHT22;53049;43.446;3.698;2023-04-07T14:39:23;20.40;1.00
66257;DHT22;53049;43.446;3.698;2023-04-07T14:41:50;20.40;1.00
66257;DHT22;53049;43.446;3.698;2023-04-07T14:44:16;20.30;1.00
66257;DHT22;53049;43.446;3.698;2023-04-07T14:46:41;20.10;1.00
66257;DHT22;53049;43.446;3.698;2023-04-07T14:49:08;20.10;1.00
66257;DHT22;53049;43.446;3.698;2023-04-07T14:51:34;19.90;1.00
66257;DHT22;53049;43.446;3.698;2023-04-07T14:54:00;19.90;1.00
66257;DHT22;53049;43.446;3.698;2023-04-07T14:56:26;19.90;1.00
66257;DHT22;53049;43.446;3.698;2023-04-07T14:58:52;19.80;1.00
66257;DHT22;53049;43.446;3.698;2023-04-07T15:01:18;19.80;1.00
66257;DHT22;53049;43.446;3.698;2023-04-07T15:03:43;19.70;1.00
66257;DHT22;53049;43.446;3.698;2023-04-07T15:06:11;19.70;1.00
66257;DHT22;53049;43.446;3.698;2023-04-07T15:08:38;19.70;1.00
66257;DHT22;53049;43.446;3.698;2023-04-07T15:11:08;19.60;1.00
66257;DHT22;53049;43.446;3.698;2023-04-07T15:13:34;19.60;1.00
66257;DHT22;53049;43.446;3.698;2023-04-07T15:16:10;19.50;1.00
66257;DHT22;53049;43.446;3.698;2023-04-07T15:18:38;19.40;1.00
66257;DHT22;53049;43.446;3.698;2023-04-07T15:21:04;19.30;1.00
66257;DHT22;53049;43.446;3.698;2023-04-07T15:23:30;19.30;1.00
66257;DHT22;53049;43.446;3.698;2023-04-07T15:25:56;19.30;1.00
66257;DHT22;53049;43.446;3.698;2023-04-07T15:28:22;19.40;1.00
66257;DHT22;53049;43.446;3.698;2023-04-07T15:30:48;19.40;1.00
66257;DHT22;53049;43.446;3.698;2023-04-07T15:33:14;19.40;1.00
66257;DHT22;53049;43.446;3.698;2023-04-07T15:35:41;19.30;1.00
66257;DHT22;53049;43.446;3.698;2023-04-07T15:38:07;19.20;1.00
66257;DHT22;53049;43.446;3.698;2023-04-07T15:40:37;19.10;1.00
66257;DHT22;53049;43.446;3.698;2023-04-07T15:43:02;19.10;1.00
66257;DHT22;53049;43.446;3.698;2023-04-07T15:45:29;19.10;1.00
66257;DHT22;53049;43.446;3.698;2023-04-07T15:47:54;19.10;1.00
66257;DHT22;53049;43.446;3.698;2023-04-07T15:50:20;19.10;1.00
66257;DHT22;53049;43.446;3.698;2023-04-07T15:52:46;18.90;1.00
66257;DHT22;53049;43.446;3.698;2023-04-07T15:55:11;18.90;1.00
66257;DHT22;53049;43.446;3.698;2023-04-07T15:57:37;18.80;1.00
66257;DHT22;53049;43.446;3.698;2023-04-07T16:00:03;18.60;1.00
66257;DHT22;53049;43.446;3.698;2023-04-07T16:02:29;18.60;1.00
66257;DHT22;53049;43.446;3.698;2023-04-07T16:04:56;18.50;1.00
66257;DHT22;53049;43.446;3.698;2023-04-07T16:07:21;18.50;1.00
66257;DHT22;53049;43.446;3.698;2023-04-07T16:09:47;18.50;1.00